Time;durP1;ratioP1;P1;durP2;ratioP2;P2;SDS_P1;SDS_P2;PMS_P1;PMS_P2;Temp;Humidity;BMP_temperature;BMP_pressure;BME280_temperature;BME280_humidity;BME280_pressure;Samples;Min_cycle;Max_cycle;Signal;HPM_P1;HPM_P2
2023/02/26 00:00:53;;;;;;;2.95;1.40;;;3.50;99.90;;;;;;4178247;28;20056;-70
2023/02/26 00:02:53;;;;;;;3.67;1.60;;;3.50;99.90;;;;;;4179279;28;20400;-70
2023/02/26 00:04:54;;;;;;;4.15;1.20;;;3.50;99.90;;;;;;4172371;28;20037;-69
2023/02/26 00:06:55;;;;;;;4.80;1.50;;;3.60;99.90;;;;;;4175183;28;20036;-70
2023/02/26 00:08:56;;;;;;;6.10;1.58;;;3.60;99.90;;;;;;4177473;28;20059;-70
2023/02/26 00:10:59;;;;;;;6.45;1.67;;;3.60;99.90;;;;;;4176835;28;20033;-69
2023/02/26 00:13:00;;;;;;;3.50;1.23;;;3.60;99.90;;;;;;4173712;28;20043;-69
2023/02/26 00:15:01;;;;;;;4.40;1.50;;;3.60;99.90;;;;;;4177999;28;20124;-70
2023/02/26 00:17:25;;;;;;;3.13;1.23;;;3.60;99.90;;;;;;4174076;28;20041;-70
2023/02/26 00:19:25;;;;;;;3.50;1.13;;;3.60;99.90;;;;;;4172149;28;20037;-70
2023/02/26 00:21:27;;;;;;;6.25;1.48;;;3.60;99.90;;;;;;4181622;28;20026;-70
2023/02/26 00:23:28;;;;;;;16.02;1.70;;;3.60;99.90;;;;;;4173713;28;20051;-70
2023/02/26 00:25:29;;;;;;;8.68;1.65;;;3.60;99.90;;;;;;4189672;28;20059;-70
2023/02/26 00:27:30;;;;;;;2.97;1.30;;;3.60;99.90;;;;;;4180717;28;20377;-70
2023/02/26 00:29:30;;;;;;;3.28;1.15;;;3.60;99.90;;;;;;4184598;28;20040;-70
2023/02/26 00:31:31;;;;;;;4.57;1.35;;;3.70;99.90;;;;;;4177413;28;20216;-70
2023/02/26 00:33:32;;;;;;;10.05;1.77;;;3.60;99.90;;;;;;4177485;28;20045;-70
2023/02/26 00:35:33;;;;;;;2.75;1.00;;;3.60;99.90;;;;;;4180470;28;20033;-70
2023/02/26 00:37:43;;;;;;;3.53;1.27;;;3.60;99.90;;;;;;4179148;28;20051;-71
2023/02/26 00:40:06;;;;;;;4.18;1.48;;;3.70;99.90;;;;;;4176901;28;20060;-69
2023/02/26 00:42:07;;;;;;;;;;;3.70;99.90;;;;;;4183872;28;20163;-70
2023/02/26 00:44:07;;;;;;;3.35;1.10;;;3.70;99.90;;;;;;4178329;28;19912;-70
2023/02/26 00:46:45;;;;;;;3.30;1.55;;;3.70;99.90;;;;;;4180169;28;20040;-69
2023/02/26 00:49:14;;;;;;;5.15;1.65;;;3.70;99.90;;;;;;4178629;28;20419;-69
2023/02/26 00:51:26;;;;;;;5.05;1.42;;;3.70;99.90;;;;;;4181424;28;20029;-69
2023/02/26 00:53:34;;;;;;;5.15;1.70;;;3.70;99.90;;;;;;4185395;28;20037;-70
2023/02/26 00:55:35;;;;;;;6.38;1.80;;;3.70;99.90;;;;;;4178558;28;20498;-70
2023/02/26 00:57:35;;;;;;;4.10;1.50;;;3.70;99.90;;;;;;4173502;28;20117;-70
2023/02/26 00:59:36;;;;;;;3.83;1.42;;;3.70;99.90;;;;;;4177463;28;20884;-70
2023/02/26 01:01:37;;;;;;;5.65;1.20;;;3.60;99.90;;;;;;4179074;28;20472;-70
2023/02/26 01:03:37;;;;;;;2.95;1.48;;;3.60;99.90;;;;;;4175980;28;20127;-70
2023/02/26 01:05:38;;;;;;;5.40;1.60;;;3.60;99.90;;;;;;4176906;28;20076;-70
2023/02/26 01:08:04;;;;;;;6.72;2.10;;;3.60;99.90;;;;;;4176428;28;20536;-70
2023/02/26 01:10:05;;;;;;;4.25;1.40;;;3.60;99.90;;;;;;4175901;28;20032;-70
2023/02/26 01:12:09;;;;;;;3.75;1.50;;;3.60;99.90;;;;;;4176721;28;20519;-70
2023/02/26 01:14:10;;;;;;;3.60;1.55;;;3.70;99.90;;;;;;4178665;28;20073;-70
2023/02/26 01:16:17;;;;;;;6.85;2.08;;;3.60;99.90;;;;;;4178521;28;20044;-70
2023/02/26 01:18:25;;;;;;;2.20;1.48;;;3.60;99.90;;;;;;4180614;28;20037;-69
2023/02/26 01:20:31;;;;;;;4.50;1.60;;;3.60;99.90;;;;;;4179656;28;20025;-70
2023/02/26 01:22:49;;;;;;;4.45;1.30;;;3.60;99.90;;;;;;4176518;28;20037;-69
2023/02/26 01:25:00;;;;;;;4.85;1.30;;;3.60;99.90;;;;;;4176721;28;20048;-70
2023/02/26 01:27:01;;;;;;;3.85;1.50;;;3.50;99.90;;;;;;4178850;28;20053;-70
2023/02/26 01:29:01;;;;;;;5.55;1.77;;;3.60;99.90;;;;;;4177532;28;20037;-70
2023/02/26 01:31:10;;;;;;;8.00;2.00;;;3.60;99.90;;;;;;4179147;28;20043;-69
2023/02/26 01:33:24;;;;;;;3.80;1.60;;;3.60;99.90;;;;;;4183275;28;20045;-70
2023/02/26 01:35:42;;;;;;;5.50;1.58;;;3.60;99.90;;;;;;4173877;28;20041;-70
2023/02/26 01:37:50;;;;;;;4.88;1.35;;;3.60;99.90;;;;;;4173173;28;20460;-69
2023/02/26 01:40:21;;;;;;;5.40;1.40;;;3.60;99.90;;;;;;4173810;28;20037;-70
2023/02/26 01:42:26;;;;;;;4.70;1.73;;;3.60;99.90;;;;;;4182540;28;20037;-70
2023/02/26 01:44:40;;;;;;;3.28;1.40;;;3.60;99.90;;;;;;4183389;28;20037;-70
2023/02/26 01:47:15;;;;;;;4.55;1.38;;;3.60;99.90;;;;;;4171400;28;20115;-70
2023/02/26 01:49:17;;;;;;;4.90;1.52;;;3.50;99.90;;;;;;4169803;28;20128;-70
2023/02/26 01:51:45;;;;;;;3.53;1.60;;;3.50;99.90;;;;;;4172556;28;20041;-70
2023/02/26 01:53:46;;;;;;;5.03;1.40;;;3.50;99.90;;;;;;4178306;28;20564;-69
2023/02/26 01:55:56;;;;;;;3.78;1.30;;;3.50;99.90;;;;;;4181520;28;20077;-70
2023/02/26 01:58:00;;;;;;;2.88;1.40;;;3.50;99.90;;;;;;4178225;28;20460;-69
2023/02/26 02:00:01;;;;;;;3.13;1.33;;;3.50;99.90;;;;;;4181526;28;20479;-70
2023/02/26 02:02:06;;;;;;;4.63;1.33;;;3.50;99.90;;;;;;4177907;28;20110;-71
2023/02/26 02:04:12;;;;;;;4.68;1.48;;;3.50;99.90;;;;;;4168162;28;20033;-70
2023/02/26 02:06:23;;;;;;;6.07;1.20;;;3.50;99.90;;;;;;4168318;28;20036;-69
2023/02/26 02:08:24;;;;;;;3.75;1.23;;;3.40;99.90;;;;;;4176322;28;20425;-70
2023/02/26 02:10:26;;;;;;;5.15;1.55;;;3.40;99.90;;;;;;4174441;28;20048;-70
2023/02/26 02:12:44;;;;;;;5.65;1.20;;;3.30;99.90;;;;;;4174914;28;20041;-68
2023/02/26 02:15:09;;;;;;;4.85;1.20;;;3.30;99.90;;;;;;4176464;28;20099;-69
2023/02/26 02:17:28;;;;;;;5.43;1.40;;;3.30;99.90;;;;;;4175968;28;20035;-70
2023/02/26 02:19:52;;;;;;;6.88;1.98;;;3.30;99.90;;;;;;4174025;28;20042;-69
2023/02/26 02:22:30;;;;;;;4.50;1.42;;;3.30;99.90;;;;;;4173949;28;20033;-70
2023/02/26 02:25:12;;;;;;;3.42;1.23;;;3.30;99.90;;;;;;4178099;28;20037;-70
2023/02/26 02:27:28;;;;;;;4.25;1.42;;;3.30;99.90;;;;;;4171082;28;20057;-70
2023/02/26 02:29:53;;;;;;;5.20;1.20;;;3.30;99.90;;;;;;4183260;28;20085;-70
2023/02/26 02:31:59;;;;;;;2.88;1.30;;;3.20;99.90;;;;;;4175593;28;20642;-70
2023/02/26 02:34:09;;;;;;;4.88;1.40;;;3.20;99.90;;;;;;4172747;28;20407;-70
2023/02/26 02:36:38;;;;;;;4.80;1.65;;;3.20;99.90;;;;;;4176594;28;20052;-70
2023/02/26 02:38:45;;;;;;;5.68;1.25;;;3.20;99.90;;;;;;4179275;28;20037;-70
2023/02/26 02:40:53;;;;;;;1.75;0.98;;;3.20;99.90;;;;;;4174903;28;20033;-70
2023/02/26 02:43:00;;;;;;;5.13;1.38;;;3.20;99.90;;;;;;4182292;28;20437;-70
2023/02/26 02:45:07;;;;;;;4.60;1.52;;;3.20;99.90;;;;;;4181394;28;20040;-70
2023/02/26 02:47:11;;;;;;;3.80;1.20;;;3.20;99.90;;;;;;4177742;28;20040;-70
2023/02/26 02:49:22;;;;;;;2.33;1.02;;;3.20;99.90;;;;;;4177426;28;20033;-70
2023/02/26 02:51:33;;;;;;;6.53;1.77;;;3.10;99.90;;;;;;4177969;28;20204;-70
2023/02/26 02:53:42;;;;;;;2.75;1.33;;;3.20;99.90;;;;;;4182562;28;20543;-70
2023/02/26 02:55:53;;;;;;;5.50;1.05;;;3.20;99.90;;;;;;4171725;28;20045;-70
2023/02/26 02:58:24;;;;;;;5.82;1.23;;;3.20;99.90;;;;;;4177860;28;20557;-70
2023/02/26 03:00:26;;;;;;;6.80;1.30;;;3.10;99.90;;;;;;4181128;28;20041;-70
2023/02/26 03:02:52;;;;;;;2.75;1.23;;;3.10;99.90;;;;;;4176411;28;20045;-69
2023/02/26 03:04:53;;;;;;;4.78;1.23;;;3.10;99.90;;;;;;4179862;28;20032;-70
2023/02/26 03:06:54;;;;;;;5.03;1.42;;;3.10;99.90;;;;;;4182095;28;20037;-71
2023/02/26 03:08:55;;;;;;;4.35;1.15;;;3.10;99.90;;;;;;4183075;28;20031;-71
2023/02/26 03:10:56;;;;;;;3.70;1.42;;;3.00;99.90;;;;;;4180982;28;20041;-71
2023/02/26 03:12:57;;;;;;;6.70;1.30;;;3.00;99.90;;;;;;4174304;28;20164;-70
2023/02/26 03:14:58;;;;;;;5.93;1.30;;;2.90;99.90;;;;;;4177033;28;20072;-70
2023/02/26 03:17:32;;;;;;;3.38;1.10;;;2.90;99.90;;;;;;4175945;28;20033;-70
2023/02/26 03:20:04;;;;;;;2.53;1.00;;;2.90;99.90;;;;;;4183369;28;20040;-70
2023/02/26 03:22:37;;;;;;;4.25;1.27;;;2.90;99.90;;;;;;4172916;28;20120;-70
2023/02/26 03:24:49;;;;;;;2.08;1.00;;;2.90;99.90;;;;;;4176092;28;20044;-70
2023/02/26 03:27:09;;;;;;;4.50;1.23;;;2.90;99.90;;;;;;4176441;28;20057;-71
2023/02/26 03:29:18;;;;;;;5.97;1.33;;;2.90;99.90;;;;;;4167519;28;20033;-71
2023/02/26 03:31:42;;;;;;;2.40;1.38;;;2.90;99.90;;;;;;4177294;28;20044;-70
2023/02/26 03:33:55;;;;;;;5.18;1.27;;;2.80;99.90;;;;;;4178673;28;20045;-70
2023/02/26 03:36:00;;;;;;;;;;;2.80;99.90;;;;;;4174078;28;20192;-70
2023/02/26 03:38:06;;;;;;;3.33;0.90;;;2.90;99.90;;;;;;4173365;28;20345;-69
2023/02/26 03:40:31;;;;;;;4.88;1.35;;;2.80;99.90;;;;;;4182256;28;20050;-72
2023/02/26 03:42:40;;;;;;;3.28;1.10;;;2.80;99.90;;;;;;4169968;28;20032;-70
2023/02/26 03:44:52;;;;;;;6.10;1.20;;;2.80;99.90;;;;;;4170338;28;20488;-71
2023/02/26 03:46:57;;;;;;;2.42;1.05;;;2.80;99.90;;;;;;4178719;28;20064;-70
2023/02/26 03:49:01;;;;;;;5.78;1.20;;;2.80;99.90;;;;;;4178701;28;20079;-70
2023/02/26 03:51:09;;;;;;;2.30;1.13;;;2.80;99.90;;;;;;4183512;28;20085;-71
2023/02/26 03:53:14;;;;;;;5.57;1.63;;;2.80;99.90;;;;;;4183685;28;20502;-70
2023/02/26 03:55:24;;;;;;;3.67;1.40;;;2.80;99.90;;;;;;4178523;28;20040;-69
2023/02/26 03:57:25;;;;;;;3.63;1.38;;;2.70;99.90;;;;;;4174202;28;20091;-70
2023/02/26 03:59:26;;;;;;;4.60;1.33;;;2.80;99.90;;;;;;4175629;28;20060;-70
2023/02/26 04:01:34;;;;;;;4.22;1.40;;;2.70;99.90;;;;;;4173375;28;20033;-70
2023/02/26 04:03:42;;;;;;;3.25;1.10;;;2.70;99.90;;;;;;4179141;28;20037;-71
2023/02/26 04:05:48;;;;;;;4.57;1.50;;;2.70;99.90;;;;;;4182260;28;20037;-71
2023/02/26 04:07:49;;;;;;;3.47;1.27;;;2.70;99.90;;;;;;4177292;28;20557;-70
2023/02/26 04:09:51;;;;;;;3.60;1.20;;;2.70;99.90;;;;;;4178091;28;20437;-70
2023/02/26 04:11:53;;;;;;;8.18;1.15;;;2.70;99.90;;;;;;4180899;28;20033;-70
2023/02/26 04:13:54;;;;;;;8.13;1.67;;;2.60;99.90;;;;;;4176647;28;20084;-70
2023/02/26 04:15:54;;;;;;;3.28;1.20;;;2.60;99.90;;;;;;4174628;28;20062;-71
2023/02/26 04:17:55;;;;;;;2.75;1.20;;;2.60;99.90;;;;;;4174588;28;20187;-70
2023/02/26 04:19:55;;;;;;;3.67;1.42;;;2.60;99.90;;;;;;4180778;28;20504;-70
2023/02/26 04:21:56;;;;;;;3.78;1.33;;;2.60;99.90;;;;;;4181286;28;20390;-71
2023/02/26 04:23:57;;;;;;;4.13;1.10;;;2.60;99.90;;;;;;4181311;28;20111;-70
2023/02/26 04:25:57;;;;;;;4.70;1.20;;;2.60;99.90;;;;;;4183138;28;20099;-71
2023/02/26 04:27:58;;;;;;;3.58;1.45;;;2.60;99.90;;;;;;4182618;28;20115;-71
2023/02/26 04:29:58;;;;;;;3.28;1.35;;;2.60;99.90;;;;;;4175260;28;20547;-71
2023/02/26 04:31:59;;;;;;;3.65;1.42;;;2.60;99.90;;;;;;4175259;28;20032;-71
2023/02/26 04:34:00;;;;;;;6.82;1.52;;;2.50;99.90;;;;;;4178897;28;20048;-71
2023/02/26 04:36:01;;;;;;;4.55;1.48;;;2.50;99.90;;;;;;4180933;28;20041;-70
2023/02/26 04:38:01;;;;;;;7.93;1.75;;;2.50;99.90;;;;;;4187575;28;20034;-70
2023/02/26 04:40:03;;;;;;;4.63;1.42;;;2.50;99.90;;;;;;4177659;28;20470;-71
2023/02/26 04:42:04;;;;;;;4.05;1.10;;;2.50;99.90;;;;;;4181579;28;20041;-70
2023/02/26 04:44:05;;;;;;;3.05;1.23;;;2.50;99.90;;;;;;4180100;28;20468;-71
2023/02/26 04:46:06;;;;;;;5.88;1.40;;;2.50;99.90;;;;;;4176388;28;20043;-71
2023/02/26 04:48:06;;;;;;;4.55;1.27;;;2.50;99.90;;;;;;4178381;28;20061;-71
2023/02/26 04:50:08;;;;;;;6.63;1.73;;;2.50;99.90;;;;;;4184199;28;20101;-73
2023/02/26 04:52:08;;;;;;;4.20;1.50;;;2.50;99.90;;;;;;4180053;28;20037;-71
2023/02/26 04:54:09;;;;;;;4.13;1.70;;;2.40;99.90;;;;;;4179980;28;20498;-71
2023/02/26 04:56:09;;;;;;;5.47;1.38;;;2.40;99.90;;;;;;4179813;28;20033;-71
2023/02/26 04:58:10;;;;;;;5.28;1.95;;;2.40;99.90;;;;;;4180419;28;20044;-71
2023/02/26 05:00:11;;;;;;;3.35;1.33;;;2.40;99.90;;;;;;4175619;28;20048;-72
2023/02/26 05:02:12;;;;;;;3.60;1.45;;;2.40;99.90;;;;;;4180396;28;20052;-71
2023/02/26 05:04:12;;;;;;;5.57;1.50;;;2.40;99.90;;;;;;4180585;28;20044;-72
2023/02/26 05:06:13;;;;;;;4.00;1.40;;;2.40;99.90;;;;;;4177319;28;20029;-71
2023/02/26 05:08:14;;;;;;;8.35;1.85;;;2.40;99.90;;;;;;4181513;28;20086;-71
2023/02/26 05:10:14;;;;;;;6.82;1.63;;;2.40;99.90;;;;;;4180244;28;20383;-72
2023/02/26 05:12:15;;;;;;;6.22;1.73;;;2.40;99.90;;;;;;4176011;28;20412;-71
2023/02/26 05:14:16;;;;;;;5.88;1.75;;;2.40;99.90;;;;;;4179673;28;20057;-69
2023/02/26 05:16:17;;;;;;;3.80;1.13;;;2.40;99.90;;;;;;4177511;28;20392;-70
2023/02/26 05:18:17;;;;;;;4.53;1.23;;;2.40;99.90;;;;;;4179800;28;20045;-70
2023/02/26 05:20:18;;;;;;;6.30;1.30;;;2.40;99.90;;;;;;4178139;28;20033;-70
2023/02/26 05:22:19;;;;;;;4.93;1.25;;;2.30;99.90;;;;;;4174947;28;20041;-70
2023/02/26 05:24:20;;;;;;;3.90;1.15;;;2.30;99.90;;;;;;4181524;28;20125;-71
2023/02/26 05:26:20;;;;;;;6.35;1.05;;;2.30;99.90;;;;;;4174199;28;20139;-70
2023/02/26 05:28:21;;;;;;;5.35;1.70;;;2.30;99.90;;;;;;4182234;28;20097;-70
2023/02/26 05:30:22;;;;;;;3.60;0.93;;;2.30;99.90;;;;;;4179884;28;20033;-70
2023/02/26 05:32:22;;;;;;;5.15;1.38;;;2.30;99.90;;;;;;4180390;28;20025;-71
2023/02/26 05:34:23;;;;;;;7.88;1.98;;;2.30;99.90;;;;;;4178081;28;20048;-70
2023/02/26 05:36:24;;;;;;;2.85;1.10;;;2.30;99.90;;;;;;4179046;28;20112;-70
2023/02/26 05:38:24;;;;;;;6.20;1.65;;;2.30;99.90;;;;;;4180533;28;20083;-70
2023/02/26 05:40:25;;;;;;;3.95;1.52;;;2.20;99.90;;;;;;4173836;28;20030;-71
2023/02/26 05:42:25;;;;;;;3.83;1.42;;;2.30;99.90;;;;;;4183514;28;20088;-70
2023/02/26 05:44:26;;;;;;;3.05;1.20;;;2.30;99.90;;;;;;4177280;28;20033;-70
2023/02/26 05:46:27;;;;;;;3.80;1.05;;;2.30;99.90;;;;;;4179189;28;20037;-70
2023/02/26 05:48:28;;;;;;;4.70;1.20;;;2.20;99.90;;;;;;4179536;28;20079;-71
2023/02/26 05:50:29;;;;;;;3.80;1.20;;;2.20;99.90;;;;;;4176602;28;20045;-70
2023/02/26 05:52:30;;;;;;;6.68;2.40;;;2.20;99.90;;;;;;4178062;28;20029;-70
2023/02/26 05:54:30;;;;;;;4.78;1.63;;;2.20;99.90;;;;;;4180368;28;20116;-70
2023/02/26 05:56:31;;;;;;;3.50;1.38;;;2.20;99.90;;;;;;4175833;28;20040;-69
2023/02/26 05:58:32;;;;;;;3.55;1.45;;;2.20;99.90;;;;;;4181975;28;20048;-69
2023/02/26 06:00:33;;;;;;;4.72;1.75;;;2.20;99.90;;;;;;4179441;28;20488;-69
2023/02/26 06:02:34;;;;;;;4.70;1.25;;;2.20;99.90;;;;;;4180234;28;20085;-70
2023/02/26 06:04:34;;;;;;;3.85;1.52;;;2.20;99.90;;;;;;4186198;28;20087;-69
2023/02/26 06:06:35;;;;;;;9.73;1.38;;;2.20;99.90;;;;;;4180684;28;20348;-70
2023/02/26 06:08:36;;;;;;;6.10;1.40;;;2.20;99.90;;;;;;4181247;28;25512;-70
2023/02/26 06:10:37;;;;;;;3.60;1.42;;;2.20;99.90;;;;;;4175789;28;20500;-69
2023/02/26 06:12:38;;;;;;;6.78;1.95;;;2.20;99.90;;;;;;4179223;28;20040;-69
2023/02/26 06:14:38;;;;;;;3.55;1.25;;;2.20;99.90;;;;;;4180257;28;20094;-69
2023/02/26 06:16:39;;;;;;;3.78;1.23;;;2.20;99.90;;;;;;4169428;28;20049;-70
2023/02/26 06:18:40;;;;;;;5.82;2.08;;;2.20;99.90;;;;;;4174936;28;20120;-69
2023/02/26 06:20:40;;;;;;;3.45;1.25;;;2.10;99.90;;;;;;4180808;28;20590;-70
2023/02/26 06:22:41;;;;;;;4.50;1.50;;;2.10;99.90;;;;;;4165194;28;20037;-70
2023/02/26 06:24:41;;;;;;;5.20;1.77;;;2.10;99.90;;;;;;4176553;28;20033;-70
2023/02/26 06:26:42;;;;;;;4.55;1.73;;;2.10;99.90;;;;;;4176032;28;20072;-69
2023/02/26 06:28:43;;;;;;;7.40;1.55;;;2.20;99.90;;;;;;4175362;28;20459;-69
2023/02/26 06:30:43;;;;;;;4.80;1.48;;;2.10;99.90;;;;;;4176946;28;20037;-70
2023/02/26 06:32:44;;;;;;;3.72;1.55;;;2.20;99.90;;;;;;4177820;28;20040;-70
2023/02/26 06:34:44;;;;;;;5.28;1.48;;;2.10;99.90;;;;;;4181440;28;20498;-70
2023/02/26 06:36:45;;;;;;;7.78;1.90;;;2.10;99.90;;;;;;4171954;28;20045;-70
2023/02/26 06:38:46;;;;;;;4.55;1.60;;;2.10;99.90;;;;;;4176926;28;20061;-69
2023/02/26 06:40:47;;;;;;;4.25;1.45;;;2.20;99.90;;;;;;4173728;28;20047;-69
2023/02/26 06:42:47;;;;;;;4.30;1.60;;;2.20;99.90;;;;;;4179092;28;20092;-69
2023/02/26 06:44:48;;;;;;;5.53;1.48;;;2.10;99.90;;;;;;4181561;28;20119;-69
2023/02/26 06:46:49;;;;;;;3.80;1.10;;;2.10;99.90;;;;;;4170720;28;20032;-69
2023/02/26 06:48:49;;;;;;;3.17;1.00;;;2.10;99.90;;;;;;4179728;28;20037;-70
2023/02/26 06:50:50;;;;;;;4.95;1.35;;;2.10;99.90;;;;;;4169988;28;20099;-69
2023/02/26 06:52:51;;;;;;;4.95;1.70;;;2.10;99.90;;;;;;4174568;28;20157;-70
2023/02/26 06:54:51;;;;;;;4.82;1.73;;;2.10;99.90;;;;;;4174015;28;20062;-69
2023/02/26 06:56:56;;;;;;;4.85;1.60;;;2.10;99.90;;;;;;4172423;28;20062;-69
2023/02/26 06:58:57;;;;;;;7.28;1.83;;;2.20;99.90;;;;;;4180281;28;20036;-70
2023/02/26 07:00:57;;;;;;;3.08;1.10;;;2.20;99.90;;;;;;4176013;28;20373;-70
2023/02/26 07:02:58;;;;;;;7.82;1.90;;;2.20;99.90;;;;;;4173619;28;20044;-70
2023/02/26 07:04:58;;;;;;;6.75;1.50;;;2.30;99.90;;;;;;4183370;28;20035;-70
2023/02/26 07:06:59;;;;;;;8.95;1.50;;;2.40;99.90;;;;;;4175448;28;20086;-70
2023/02/26 07:08:59;;;;;;;3.33;1.55;;;2.40;99.90;;;;;;4183285;28;20086;-70
2023/02/26 07:11:00;;;;;;;4.65;1.45;;;2.50;99.90;;;;;;4179492;28;20056;-70
2023/02/26 07:13:01;;;;;;;6.43;1.63;;;2.50;99.90;;;;;;4173686;28;20099;-70
2023/02/26 07:15:02;;;;;;;3.15;1.52;;;2.60;99.90;;;;;;4172052;28;20061;-71
2023/02/26 07:17:02;;;;;;;4.57;1.70;;;2.60;99.90;;;;;;4173309;28;20667;-70
2023/02/26 07:19:03;;;;;;;4.97;1.30;;;2.60;99.90;;;;;;4173158;28;20033;-70
2023/02/26 07:21:04;;;;;;;9.50;1.85;;;2.60;99.90;;;;;;4171126;28;20103;-69
2023/02/26 07:23:05;;;;;;;5.57;1.23;;;2.70;99.90;;;;;;4173501;28;20405;-70
2023/02/26 07:25:06;;;;;;;3.55;1.20;;;2.60;99.90;;;;;;4174505;28;20061;-72
2023/02/26 07:27:07;;;;;;;4.95;1.08;;;2.60;99.90;;;;;;4171785;28;20045;-72
2023/02/26 07:29:08;;;;;;;2.50;1.10;;;2.60;99.90;;;;;;4168827;28;20033;-71
2023/02/26 07:31:08;;;;;;;4.68;1.17;;;2.80;99.90;;;;;;4166951;28;20129;-71
2023/02/26 07:33:09;;;;;;;5.07;1.63;;;3.00;99.90;;;;;;4175401;28;20053;-72
2023/02/26 07:35:10;;;;;;;3.08;1.20;;;3.20;99.90;;;;;;4164825;28;20394;-72
2023/02/26 07:37:10;;;;;;;3.10;1.30;;;3.50;99.90;;;;;;4176006;28;20029;-72
2023/02/26 07:39:11;;;;;;;3.85;1.30;;;3.70;99.90;;;;;;4183710;28;20086;-72
2023/02/26 07:41:11;;;;;;;4.57;1.50;;;4.10;99.90;;;;;;4182986;28;20033;-72
2023/02/26 07:43:12;;;;;;;6.07;1.58;;;4.40;99.90;;;;;;4174589;28;20461;-72
2023/02/26 07:45:13;;;;;;;4.35;1.23;;;4.60;99.90;;;;;;4174093;28;20115;-72
2023/02/26 07:47:13;;;;;;;3.20;1.02;;;4.90;99.90;;;;;;4179189;28;20044;-72
2023/02/26 07:49:14;;;;;;;4.28;1.17;;;5.10;99.90;;;;;;4181438;28;20048;-72
2023/02/26 07:51:15;;;;;;;3.67;1.10;;;5.40;99.90;;;;;;4183939;28;20103;-72
2023/02/26 07:53:15;;;;;;;3.08;1.13;;;5.70;99.90;;;;;;4174915;28;20064;-72
2023/02/26 07:55:16;;;;;;;2.47;1.00;;;5.50;99.90;;;;;;4176442;28;20377;-72
2023/02/26 07:57:17;;;;;;;3.40;1.30;;;6.00;99.90;;;;;;4185463;28;20107;-72
2023/02/26 07:59:18;;;;;;;4.45;1.20;;;6.20;99.90;;;;;;4185023;28;20029;-73
2023/02/26 08:01:19;;;;;;;2.97;1.15;;;6.60;99.90;;;;;;4180075;28;20063;-73
2023/02/26 08:03:19;;;;;;;3.75;1.23;;;6.80;99.90;;;;;;4184691;28;20037;-73
2023/02/26 08:05:20;;;;;;;3.05;1.00;;;7.20;99.90;;;;;;4178446;28;20116;-73
2023/02/26 08:07:21;;;;;;;3.95;1.23;;;7.50;99.90;;;;;;4187155;28;20479;-71
2023/02/26 08:09:22;;;;;;;4.22;1.00;;;7.70;99.90;;;;;;4181594;28;20383;-73
2023/02/26 08:11:22;;;;;;;1.95;0.90;;;7.70;99.90;;;;;;4181398;28;20041;-72
2023/02/26 08:13:23;;;;;;;2.13;0.88;;;8.10;99.90;;;;;;4180184;28;20045;-72
2023/02/26 08:15:23;;;;;;;2.70;1.17;;;8.40;99.90;;;;;;4175554;28;20040;-73
2023/02/26 08:17:24;;;;;;;2.50;1.10;;;8.60;99.90;;;;;;4180077;28;20036;-73
2023/02/26 08:19:25;;;;;;;2.70;1.10;;;8.90;99.90;;;;;;4186902;28;20037;-73
2023/02/26 08:21:26;;;;;;;5.38;1.45;;;9.10;99.90;;;;;;4177731;28;20177;-73
2023/02/26 08:23:27;;;;;;;2.65;1.10;;;9.20;99.90;;;;;;4181147;28;20055;-73
2023/02/26 08:25:27;;;;;;;1.77;0.85;;;9.00;99.90;;;;;;4180748;28;20037;-73
2023/02/26 08:27:28;;;;;;;3.03;0.90;;;9.20;99.90;;;;;;4183891;28;20099;-73
2023/02/26 08:29:29;;;;;;;9.57;1.10;;;9.60;99.90;;;;;;4165699;28;20108;-73
2023/02/26 08:31:30;;;;;;;3.55;1.30;;;9.80;99.90;;;;;;4177894;28;20479;-73
2023/02/26 08:33:32;;;;;;;1.53;1.00;;;9.70;99.90;;;;;;4180565;28;20103;-73
2023/02/26 08:35:33;;;;;;;3.67;0.73;;;9.60;99.90;;;;;;4179796;28;20025;-73
2023/02/26 08:37:34;;;;;;;2.63;1.05;;;9.80;99.90;;;;;;4182509;28;20077;-74
2023/02/26 08:39:37;;;;;;;3.95;1.27;;;9.70;99.90;;;;;;4187093;28;20040;-73
2023/02/26 08:41:37;;;;;;;3.53;1.15;;;9.70;99.90;;;;;;4180661;28;20464;-72
2023/02/26 08:43:38;;;;;;;3.45;1.40;;;9.80;99.90;;;;;;4185470;28;20047;-72
2023/02/26 08:45:38;;;;;;;1.85;0.80;;;10.00;99.90;;;;;;4174674;28;20115;-72
2023/02/26 08:47:43;;;;;;;3.83;1.27;;;9.80;98.10;;;;;;4178365;28;20039;-74
2023/02/26 08:49:44;;;;;;;4.55;1.30;;;9.40;99.90;;;;;;4171865;28;20036;-74
2023/02/26 08:51:44;;;;;;;3.88;0.80;;;9.70;99.90;;;;;;4176054;28;20116;-74
2023/02/26 08:53:46;;;;;;;4.03;0.70;;;9.30;96.20;;;;;;4182808;28;20135;-73
2023/02/26 08:55:48;;;;;;;4.82;1.10;;;9.20;99.90;;;;;;4181773;28;20055;-73
2023/02/26 08:57:48;;;;;;;5.35;1.10;;;9.50;99.90;;;;;;4179175;28;20032;-73
2023/02/26 08:59:49;;;;;;;3.50;1.25;;;9.30;99.90;;;;;;4175296;28;20399;-73
2023/02/26 09:01:50;;;;;;;4.88;1.05;;;8.80;99.90;;;;;;4177033;28;20033;-72
2023/02/26 09:03:51;;;;;;;2.65;0.93;;;8.90;99.90;;;;;;4172501;28;20041;-72
2023/02/26 09:05:51;;;;;;;2.20;0.90;;;8.50;99.90;;;;;;4174269;28;20365;-72
2023/02/26 09:07:52;;;;;;;2.13;1.00;;;8.80;99.90;;;;;;4170444;28;20495;-72
2023/02/26 09:09:52;;;;;;;3.67;1.13;;;8.90;99.90;;;;;;4177350;28;20483;-72
2023/02/26 09:11:53;;;;;;;2.83;1.10;;;8.40;99.90;;;;;;4181300;28;20044;-72
2023/02/26 09:13:53;;;;;;;2.50;0.98;;;8.40;99.90;;;;;;4183164;28;20040;-72
2023/02/26 09:15:55;;;;;;;2.72;1.15;;;8.50;99.90;;;;;;4175810;28;20083;-72
2023/02/26 09:17:56;;;;;;;3.88;1.05;;;7.70;99.10;;;;;;4181441;28;20123;-72
2023/02/26 09:19:57;;;;;;;2.45;0.88;;;8.10;99.90;;;;;;4172724;28;20099;-72
2023/02/26 09:21:58;;;;;;;2.67;0.90;;;7.90;99.90;;;;;;4174395;28;20041;-72
2023/02/26 09:23:58;;;;;;;2.58;0.85;;;7.40;99.90;;;;;;4180337;28;20029;-72
2023/02/26 09:25:59;;;;;;;2.15;1.05;;;7.10;99.90;;;;;;4173187;28;20037;-72
2023/02/26 09:27:59;;;;;;;2.60;0.90;;;7.10;99.90;;;;;;4171258;28;20048;-72
2023/02/26 09:30:01;;;;;;;1.77;0.68;;;7.10;99.90;;;;;;4175476;28;20033;-72
2023/02/26 09:32:01;;;;;;;1.73;0.95;;;7.50;99.90;;;;;;4171730;28;20112;-72
2023/02/26 09:34:02;;;;;;;3.20;1.25;;;7.50;99.90;;;;;;4182308;28;20044;-72
2023/02/26 09:36:02;;;;;;;3.05;1.05;;;7.20;99.90;;;;;;4175664;28;20040;-72
2023/02/26 09:38:03;;;;;;;2.38;0.88;;;7.40;99.90;;;;;;4174976;28;20087;-72
2023/02/26 09:40:04;;;;;;;2.25;1.02;;;7.20;99.90;;;;;;4177153;28;20033;-72
2023/02/26 09:42:27;;;;;;;3.60;1.00;;;6.10;99.90;;;;;;4174018;28;20040;-72
2023/02/26 09:44:31;;;;;;;4.18;1.02;;;6.10;99.90;;;;;;4178751;28;20037;-72
2023/02/26 09:46:51;;;;;;;3.10;1.00;;;6.10;99.90;;;;;;4176919;28;20041;-72
2023/02/26 09:49:08;;;;;;;5.55;1.10;;;6.10;99.90;;;;;;4173112;28;20480;-71
2023/02/26 09:51:15;;;;;;;3.38;0.85;;;6.30;99.90;;;;;;4172482;28;20036;-72
2023/02/26 09:53:27;;;;;;;1.42;0.82;;;6.70;99.90;;;;;;4172950;28;20045;-72
2023/02/26 09:55:33;;;;;;;2.42;0.73;;;6.90;99.90;;;;;;4174877;28;20053;-72
2023/02/26 09:57:36;;;;;;;2.08;0.85;;;6.80;99.90;;;;;;4177302;28;20453;-72
2023/02/26 09:59:37;;;;;;;1.55;0.82;;;6.90;99.90;;;;;;4176171;28;20041;-72
2023/02/26 10:01:42;;;;;;;2.03;0.80;;;6.60;99.90;;;;;;4173919;28;20037;-72
2023/02/26 10:04:10;;;;;;;3.15;0.93;;;6.90;99.90;;;;;;4174473;28;20044;-73
2023/02/26 10:06:23;;;;;;;2.63;0.70;;;6.10;99.90;;;;;;4146194;28;20392;-72
2023/02/26 10:08:32;;;;;;;2.35;0.95;;;6.20;99.90;;;;;;4175393;28;20041;-72
2023/02/26 10:10:44;;;;;;;2.75;0.70;;;6.50;99.90;;;;;;4177800;28;20043;-73
2023/02/26 10:12:46;;;;;;;5.85;1.20;;;6.60;99.90;;;;;;4173347;28;20038;-72
2023/02/26 10:14:53;;;;;;;;;;;6.90;99.90;;;;;;4173517;28;20041;-72
2023/02/26 10:16:59;;;;;;;2.88;0.90;;;7.20;99.90;;;;;;4173492;28;20400;-71
2023/02/26 10:19:15;;;;;;;3.40;0.85;;;7.10;99.90;;;;;;4178718;28;20044;-72
2023/02/26 10:21:53;;;;;;;3.15;0.80;;;6.70;99.90;;;;;;4168983;28;20574;-72
2023/02/26 10:23:57;;;;;;;3.75;1.02;;;6.90;99.90;;;;;;4122897;28;20033;-72
2023/02/26 10:26:12;;;;;;;2.53;0.93;;;6.50;99.90;;;;;;4172372;28;20056;-72
2023/02/26 10:28:42;;;;;;;2.95;0.77;;;6.50;99.90;;;;;;4167053;28;20566;-72
2023/02/26 10:30:53;;;;;;;4.00;1.38;;;5.50;99.90;;;;;;4177242;28;20179;-72
2023/02/26 10:32:58;;;;;;;10.15;1.20;;;5.50;99.90;;;;;;4173831;28;20025;-73
2023/02/26 10:35:07;;;;;;;1.33;0.70;;;5.20;99.90;;;;;;4177894;28;20038;-72
2023/02/26 10:37:23;;;;;;;2.42;0.93;;;5.00;99.90;;;;;;4174875;28;20028;-72
2023/02/26 10:39:40;;;;;;;3.17;0.80;;;5.20;99.90;;;;;;4181068;28;20361;-71
2023/02/26 10:41:41;;;;;;;1.75;0.80;;;5.30;99.90;;;;;;4170955;28;20037;-71
2023/02/26 10:44:20;;;;;;;2.67;0.90;;;5.50;99.90;;;;;;4171808;28;20393;-71
2023/02/26 10:46:48;;;;;;;2.72;0.82;;;5.50;99.90;;;;;;4171473;28;20033;-71
2023/02/26 10:49:16;;;;;;;3.70;0.98;;;5.60;99.90;;;;;;4171696;28;20040;-71
2023/02/26 10:51:19;;;;;;;2.63;0.77;;;5.10;99.90;;;;;;4172783;28;20470;-71
2023/02/26 10:53:21;;;;;;;3.60;1.17;;;5.00;99.90;;;;;;4171547;28;20044;-71
2023/02/26 10:55:43;;;;;;;3.55;0.82;;;5.00;99.90;;;;;;4170955;28;20079;-71
2023/02/26 10:57:59;;;;;;;3.60;0.98;;;5.10;99.90;;;;;;4170430;28;20025;-72
2023/02/26 11:00:04;;;;;;;1.88;0.68;;;5.00;99.90;;;;;;4173104;28;20044;-72
2023/02/26 11:02:35;;;;;;;2.50;0.60;;;5.00;99.90;;;;;;4169922;28;20480;-72